Time,TemperatureF,DewpointF,PressureIn,WindDirection,WindDirectionDegrees,WindSpeedMPH,WindSpeedGustMPH,Humidity,HourlyPrecipIn,Conditions,Clouds,dailyrainin,SoftwareType,DateUTC
2013-02-13 00:01:00,41.0,18.0,30.26,WNW,302,4.0,6.0,39,0.00,,,0.00,,2013-02-13 08:01:00,
2013-02-13 00:11:00,42.0,19.0,30.26,WNW,303,4.0,5.0,39,0.00,,,0.00,,2013-02-13 08:11:00,
2013-02-13 00:21:00,42.0,19.0,30.26,WNW,303,4.0,5.0,39,0.00,,,0.00,,2013-02-13 08:21:00,
2013-02-13 00:31:00,42.0,19.0,30.26,WNW,285,2.0,7.0,40,0.00,,,0.00,,2013-02-13 08:31:00,
2013-02-13 00:42:00,42.0,19.0,30.26,WNW,285,2.0,7.0,40,0.00,,,0.00,,2013-02-13 08:42:00,
2013-02-13 00:51:00,43.0,20.0,30.25,WNW,295,3.0,5.0,40,0.00,,,0.00,,2013-02-13 08:51:00,
2013-02-13 01:01:00,41.0,19.0,30.25,North,359,2.0,5.0,41,0.00,,,0.00,,2013-02-13 09:01:00,
2013-02-13 01:11:00,40.0,18.0,30.25,ENE,71,1.0,5.0,41,0.00,,,0.00,,2013-02-13 09:11:00,
2013-02-13 01:21:00,40.0,18.0,30.25,ENE,71,1.0,5.0,41,0.00,,,0.00,,2013-02-13 09:21:00,
2013-02-13 01:31:00,39.0,18.0,30.25,North,0,0.0,3.0,42,0.00,,,0.00,,2013-02-13 09:31:00,
2013-02-13 01:41:00,41.0,19.0,30.24,NW,325,5.0,7.0,41,0.00,,,0.00,,2013-02-13 09:41:00,
2013-02-13 01:51:00,41.0,19.0,30.24,NW,325,5.0,7.0,41,0.00,,,0.00,,2013-02-13 09:51:00,
2013-02-13 02:01:00,40.0,19.0,30.25,NW,305,5.0,7.0,42,0.00,,,0.00,,2013-02-13 10:01:00,
2013-02-13 02:11:00,40.0,19.0,30.24,North,0,0.0,4.0,43,0.00,,,0.00,,2013-02-13 10:11:00,
2013-02-13 02:21:00,40.0,19.0,30.24,North,0,0.0,4.0,43,0.00,,,0.00,,2013-02-13 10:21:00,
2013-02-13 02:31:00,38.0,19.0,30.24,North,0,0.0,0.0,45,0.00,,,0.00,,2013-02-13 10:31:00,
2013-02-13 02:41:00,39.0,18.0,30.24,North,0,0.0,0.0,43,0.00,,,0.00,,2013-02-13 10:41:00,
2013-02-13 02:51:00,39.0,18.0,30.24,North,0,0.0,0.0,43,0.00,,,0.00,,2013-02-13 10:51:00,
2013-02-13 03:01:00,39.0,19.0,30.24,North,0,0.0,2.0,44,0.00,,,0.00,,2013-02-13 11:01:00,
2013-02-13 03:11:00,40.0,18.0,30.24,North,0,0.0,2.0,41,0.00,,,0.00,,2013-02-13 11:11:00,
2013-02-13 03:22:00,40.0,18.0,30.24,North,0,0.0,2.0,41,0.00,,,0.00,,2013-02-13 11:22:00,
2013-02-13 03:31:00,41.0,19.0,30.23,North,0,0.0,2.0,41,0.00,,,0.00,,2013-02-13 11:31:00,
2013-02-13 03:41:00,41.0,20.0,30.23,SW,226,1.0,3.0,43,0.00,,,0.00,,2013-02-13 11:41:00,
2013-02-13 03:52:00,41.0,20.0,30.23,SW,226,1.0,3.0,43,0.00,,,0.00,,2013-02-13 11:52:00,
2013-02-13 04:02:00,40.0,20.0,30.22,SW,233,1.0,3.0,45,0.00,,,0.00,,2013-02-13 12:02:00,
2013-02-13 04:11:00,40.0,21.0,30.22,WSW,253,1.0,3.0,46,0.00,,,0.00,,2013-02-13 12:11:00,
2013-02-13 04:21:00,40.0,21.0,30.22,WSW,253,1.0,3.0,46,0.00,,,0.00,,2013-02-13 12:21:00,
2013-02-13 04:31:00,39.0,20.0,30.22,West,268,1.0,4.0,47,0.00,,,0.00,,2013-02-13 12:31:00,
2013-02-13 04:42:00,40.0,21.0,30.23,WSW,241,2.0,3.0,46,0.00,,,0.00,,2013-02-13 12:42:00,
2013-02-13 04:52:00,40.0,21.0,30.23,WSW,241,2.0,3.0,46,0.00,,,0.00,,2013-02-13 12:52:00,
2013-02-13 05:02:00,40.0,21.0,30.23,SW,232,1.0,2.0,47,0.00,,,0.00,,2013-02-13 13:02:00,
2013-02-13 05:11:00,40.0,21.0,30.23,WSW,244,1.0,3.0,47,0.00,,,0.00,,2013-02-13 13:11:00,
2013-02-13 05:21:00,40.0,21.0,30.23,WSW,244,1.0,3.0,47,0.00,,,0.00,,2013-02-13 13:21:00,
2013-02-13 05:31:00,39.0,20.0,30.23,NW,304,2.0,4.0,46,0.00,,,0.00,,2013-02-13 13:31:00,
2013-02-13 05:41:00,39.0,18.0,30.23,NW,323,3.0,4.0,43,0.00,,,0.00,,2013-02-13 13:41:00,
2013-02-13 05:52:00,39.0,18.0,30.23,NW,323,3.0,4.0,43,0.00,,,0.00,,2013-02-13 13:52:00,
2013-02-13 06:01:00,36.0,17.0,30.24,NW,325,3.0,5.0,45,0.00,,,0.00,,2013-02-13 14:01:00,
2013-02-13 06:11:00,35.0,18.0,30.24,NNW,347,3.0,5.0,50,0.00,,,0.00,,2013-02-13 14:11:00,
2013-02-13 06:21:00,35.0,18.0,30.24,NNW,347,3.0,5.0,50,0.00,,,0.00,,2013-02-13 14:21:00,
2013-02-13 06:31:00,37.0,21.0,30.25,NNE,31,1.0,4.0,52,0.00,,,0.00,,2013-02-13 14:31:00,
2013-02-13 06:41:00,38.0,18.0,30.25,NNE,17,2.0,3.0,44,0.00,,,0.00,,2013-02-13 14:41:00,
2013-02-13 06:52:00,38.0,18.0,30.25,NNE,17,2.0,3.0,44,0.00,,,0.00,,2013-02-13 14:52:00,
2013-02-13 07:01:00,36.0,20.0,30.25,NNW,334,3.0,4.0,51,0.00,,,0.00,,2013-02-13 15:01:00,
2013-02-13 07:11:00,38.0,20.0,30.25,NW,312,2.0,4.0,47,0.00,,,0.00,,2013-02-13 15:11:00,
2013-02-13 07:21:00,38.0,20.0,30.25,NW,312,2.0,4.0,47,0.00,,,0.00,,2013-02-13 15:21:00,
2013-02-13 07:31:00,39.0,19.0,30.26,WNW,282,1.0,3.0,45,0.00,,,0.00,,2013-02-13 15:31:00,
2013-02-13 07:41:00,39.0,19.0,30.26,WNW,282,1.0,3.0,45,0.00,,,0.00,,2013-02-13 15:41:00,
2013-02-13 07:52:00,40.0,19.0,30.26,NW,315,2.0,3.0,42,0.00,,,0.00,,2013-02-13 15:52:00,
2013-02-13 08:01:00,41.0,19.0,30.27,WSW,252,2.0,3.0,41,0.00,,,0.00,,2013-02-13 16:01:00,
2013-02-13 08:11:00,43.0,20.0,30.27,North,0,0.0,1.0,40,0.00,,,0.00,,2013-02-13 16:11:00,
2013-02-13 08:21:00,43.0,20.0,30.27,North,0,0.0,1.0,40,0.00,,,0.00,,2013-02-13 16:21:00,
2013-02-13 08:31:00,46.0,20.0,30.30,North,0,0.0,1.0,35,0.00,,,0.00,,2013-02-13 16:31:00,
2013-02-13 08:41:00,46.0,20.0,30.30,North,0,0.0,1.0,35,0.00,,,0.00,,2013-02-13 16:41:00,
2013-02-13 08:52:00,47.0,19.0,30.30,North,0,0.0,1.0,33,0.00,,,0.00,,2013-02-13 16:52:00,
2013-02-13 09:01:00,48.0,20.0,30.31,North,0,0.0,2.0,32,0.00,,,0.00,,2013-02-13 17:01:00,
2013-02-13 09:11:00,49.0,20.0,30.30,SSW,205,1.0,3.0,32,0.00,,,0.00,,2013-02-13 17:11:00,
2013-02-13 09:21:00,49.0,20.0,30.30,SSW,205,1.0,3.0,32,0.00,,,0.00,,2013-02-13 17:21:00,
2013-02-13 09:31:00,50.0,21.0,30.30,North,0,0.0,3.0,31,0.00,,,0.00,,2013-02-13 17:31:00,
2013-02-13 09:41:00,50.0,21.0,30.30,North,0,0.0,3.0,31,0.00,,,0.00,,2013-02-13 17:41:00,
2013-02-13 09:52:00,52.0,21.0,30.31,North,0,0.0,3.0,29,0.00,,,0.00,,2013-02-13 17:52:00,
2013-02-13 10:01:00,52.0,21.0,30.30,SSW,203,2.0,5.0,29,0.00,,,0.00,,2013-02-13 18:01:00,
2013-02-13 10:11:00,53.0,21.0,30.30,South,188,1.0,6.0,28,0.00,,,0.00,,2013-02-13 18:11:00,
2013-02-13 10:22:00,53.0,21.0,30.30,South,188,1.0,6.0,28,0.00,,,0.00,,2013-02-13 18:22:00,
2013-02-13 10:31:00,55.0,21.0,30.30,SE,138,4.0,7.0,26,0.00,,,0.00,,2013-02-13 18:31:00,
2013-02-13 10:41:00,55.0,21.0,30.30,SE,138,4.0,7.0,26,0.00,,,0.00,,2013-02-13 18:41:00,
2013-02-13 10:52:00,55.0,20.0,30.30,North,0,0.0,5.0,25,0.00,,,0.00,,2013-02-13 18:52:00,
2013-02-13 11:01:00,57.0,20.0,30.29,SE,144,1.0,5.0,23,0.00,,,0.00,,2013-02-13 19:01:00,
2013-02-13 11:11:00,57.0,20.0,30.29,East,99,2.0,6.0,23,0.00,,,0.00,,2013-02-13 19:11:00,
2013-02-13 11:21:00,57.0,20.0,30.29,East,99,2.0,6.0,23,0.00,,,0.00,,2013-02-13 19:21:00,
2013-02-13 11:31:00,59.0,20.0,30.29,SE,140,2.0,5.0,22,0.00,,,0.00,,2013-02-13 19:31:00,
2013-02-13 11:41:00,59.0,20.0,30.29,SE,140,2.0,5.0,22,0.00,,,0.00,,2013-02-13 19:41:00,
2013-02-13 11:52:00,59.0,19.0,30.27,North,0,0.0,7.0,21,0.00,,,0.00,,2013-02-13 19:52:00,
2013-02-13 12:01:00,58.0,18.0,30.27,NE,52,2.0,6.0,21,0.00,,,0.00,,2013-02-13 20:01:00,
2013-02-13 12:11:00,60.0,19.0,30.25,North,0,0.0,6.0,20,0.00,,,0.00,,2013-02-13 20:11:00,
2013-02-13 12:21:00,60.0,19.0,30.25,North,0,0.0,6.0,20,0.00,,,0.00,,2013-02-13 20:21:00,
2013-02-13 12:31:00,60.0,18.0,30.24,ENE,76,1.0,5.0,19,0.00,,,0.00,,2013-02-13 20:31:00,
2013-02-13 12:41:00,60.0,16.0,30.24,NE,53,1.0,7.0,18,0.00,,,0.00,,2013-02-13 20:41:00,
2013-02-13 12:52:00,60.0,16.0,30.24,NE,53,1.0,7.0,18,0.00,,,0.00,,2013-02-13 20:52:00,
2013-02-13 13:01:00,61.0,17.0,30.23,ENE,74,1.0,6.0,18,0.00,,,0.00,,2013-02-13 21:01:00,
2013-02-13 13:11:00,62.0,18.0,30.22,East,93,1.0,7.0,18,0.00,,,0.00,,2013-02-13 21:11:00,
2013-02-13 13:21:00,62.0,18.0,30.22,East,93,1.0,7.0,18,0.00,,,0.00,,2013-02-13 21:21:00,
2013-02-13 13:31:00,62.0,17.0,30.21,NE,53,1.0,7.0,17,0.00,,,0.00,,2013-02-13 21:31:00,
2013-02-13 13:42:00,63.0,18.0,30.20,ESE,113,3.0,8.0,17,0.00,,,0.00,,2013-02-13 21:42:00,
2013-02-13 13:52:00,63.0,18.0,30.20,ESE,113,3.0,8.0,17,0.00,,,0.00,,2013-02-13 21:52:00,
2013-02-13 14:01:00,62.0,17.0,30.19,ENE,71,4.0,9.0,17,0.00,,,0.00,,2013-02-13 22:01:00,
2013-02-13 14:11:00,63.0,16.0,30.18,ENE,67,4.0,8.0,16,0.00,,,0.00,,2013-02-13 22:11:00,
2013-02-13 14:21:00,63.0,16.0,30.18,ENE,67,4.0,8.0,16,0.00,,,0.00,,2013-02-13 22:21:00,
2013-02-13 14:31:00,64.0,17.0,30.17,East,83,2.0,6.0,16,0.00,,,0.00,,2013-02-13 22:31:00,
2013-02-13 14:41:00,64.0,17.0,30.17,East,83,2.0,6.0,16,0.00,,,0.00,,2013-02-13 22:41:00,
2013-02-13 14:51:00,64.0,17.0,30.16,SE,127,1.0,9.0,16,0.00,,,0.00,,2013-02-13 22:51:00,
2013-02-13 15:01:00,64.0,17.0,30.16,SE,138,2.0,7.0,16,0.00,,,0.00,,2013-02-13 23:01:00,
2013-02-13 15:11:00,64.0,17.0,30.16,SE,133,4.0,7.0,16,0.00,,,0.00,,2013-02-13 23:11:00,
2013-02-13 15:21:00,64.0,17.0,30.16,SE,133,4.0,7.0,16,0.00,,,0.00,,2013-02-13 23:21:00,
2013-02-13 15:31:00,64.0,17.0,30.16,SE,126,2.0,5.0,16,0.00,,,0.00,,2013-02-13 23:31:00,
2013-02-13 15:41:00,64.0,17.0,30.16,SE,126,2.0,5.0,16,0.00,,,0.00,,2013-02-13 23:41:00,
2013-02-13 15:52:00,65.0,16.0,30.15,SE,134,2.0,6.0,15,0.00,,,0.00,,2013-02-13 23:52:00,
2013-02-13 16:01:00,65.0,18.0,30.15,North,0,0.0,5.0,16,0.00,,,0.00,,2013-02-14 00:01:00,
2013-02-13 16:11:00,65.0,18.0,30.15,North,0,0.0,5.0,16,0.00,,,0.00,,2013-02-14 00:11:00,
2013-02-13 16:21:00,63.0,16.0,30.14,South,184,2.0,7.0,16,0.00,,,0.00,,2013-02-14 00:21:00,
2013-02-13 16:31:00,63.0,16.0,30.14,SSW,201,2.0,5.0,16,0.00,,,0.00,,2013-02-14 00:31:00,
2013-02-13 16:41:00,63.0,16.0,30.14,SSW,201,2.0,5.0,16,0.00,,,0.00,,2013-02-14 00:41:00,
2013-02-13 16:52:00,64.0,17.0,30.14,ESE,123,3.0,5.0,16,0.00,,,0.00,,2013-02-14 00:52:00,
2013-02-13 17:01:00,63.0,16.0,30.14,SE,136,3.0,7.0,16,0.00,,,0.00,,2013-02-14 01:01:00,
2013-02-13 17:11:00,63.0,16.0,30.13,SE,126,2.0,4.0,16,0.00,,,0.00,,2013-02-14 01:11:00,
2013-02-13 17:21:00,63.0,16.0,30.13,SE,126,2.0,4.0,16,0.00,,,0.00,,2013-02-14 01:21:00,
2013-02-13 17:31:00,62.0,17.0,30.13,North,0,0.0,2.0,17,0.00,,,0.00,,2013-02-14 01:31:00,
2013-02-13 17:41:00,62.0,17.0,30.13,North,0,0.0,2.0,17,0.00,,,0.00,,2013-02-14 01:41:00,
2013-02-13 17:51:00,60.0,15.0,30.14,North,0,0.0,4.0,17,0.00,,,0.00,,2013-02-14 01:51:00,
2013-02-13 18:01:00,59.0,16.0,30.14,SSE,165,1.0,6.0,18,0.00,,,0.00,,2013-02-14 02:01:00,
2013-02-13 18:11:00,58.0,24.0,30.15,West,275,4.0,8.0,27,0.00,,,0.00,,2013-02-14 02:11:00,
2013-02-13 18:21:00,58.0,24.0,30.15,West,275,4.0,8.0,27,0.00,,,0.00,,2013-02-14 02:21:00,
2013-02-13 18:31:00,57.0,26.0,30.15,WNW,293,1.0,5.0,30,0.00,,,0.00,,2013-02-14 02:31:00,
2013-02-13 18:41:00,57.0,26.0,30.15,WNW,293,1.0,5.0,30,0.00,,,0.00,,2013-02-14 02:41:00,
2013-02-13 18:51:00,57.0,26.0,30.15,WNW,293,1.0,5.0,30,0.00,,,0.00,,2013-02-14 02:51:00,
2013-02-13 19:02:00,55.0,29.0,30.15,West,272,4.0,8.0,37,0.00,,,0.00,,2013-02-14 03:02:00,
2013-02-13 19:11:00,54.0,30.0,30.15,West,272,3.0,7.0,40,0.00,,,0.00,,2013-02-14 03:11:00,
2013-02-13 19:21:00,54.0,30.0,30.15,West,272,3.0,7.0,40,0.00,,,0.00,,2013-02-14 03:21:00,
2013-02-13 19:31:00,53.0,30.0,30.16,West,273,5.0,7.0,41,0.00,,,0.00,,2013-02-14 03:31:00,
2013-02-13 19:42:00,53.0,30.0,30.15,WNW,286,7.0,9.0,41,0.00,,,0.00,,2013-02-14 03:42:00,
2013-02-13 19:52:00,53.0,30.0,30.15,WNW,286,7.0,9.0,41,0.00,,,0.00,,2013-02-14 03:52:00,
2013-02-13 20:01:00,51.0,29.0,30.16,WNW,283,6.0,9.0,43,0.00,,,0.00,,2013-02-14 04:01:00,
2013-02-13 20:11:00,51.0,30.0,30.16,WNW,287,8.0,11.0,45,0.00,,,0.00,,2013-02-14 04:11:00,
2013-02-13 20:21:00,51.0,30.0,30.16,WNW,287,8.0,11.0,45,0.00,,,0.00,,2013-02-14 04:21:00,
2013-02-13 20:31:00,50.0,30.0,30.15,WNW,286,9.0,12.0,46,0.00,,,0.00,,2013-02-14 04:31:00,
2013-02-13 20:41:00,50.0,30.0,30.15,WNW,286,9.0,12.0,46,0.00,,,0.00,,2013-02-14 04:41:00,
2013-02-13 20:51:00,50.0,29.0,30.16,West,280,7.0,11.0,45,0.00,,,0.00,,2013-02-14 04:51:00,
2013-02-13 21:01:00,49.0,29.0,30.16,WNW,291,6.0,8.0,46,0.00,,,0.00,,2013-02-14 05:01:00,
2013-02-13 21:11:00,49.0,29.0,30.16,WNW,291,6.0,8.0,46,0.00,,,0.00,,2013-02-14 05:11:00,
2013-02-13 21:21:00,48.0,27.0,30.17,NW,310,5.0,8.0,44,0.00,,,0.00,,2013-02-14 05:21:00,
2013-02-13 21:31:00,47.0,26.0,30.17,NW,308,6.0,8.0,43,0.00,,,0.00,,2013-02-14 05:31:00,
2013-02-13 21:41:00,47.0,26.0,30.17,NW,308,6.0,8.0,43,0.00,,,0.00,,2013-02-14 05:41:00,
2013-02-13 21:52:00,47.0,26.0,30.17,NW,318,7.0,10.0,43,0.00,,,0.00,,2013-02-14 05:52:00,
2013-02-13 22:01:00,47.0,25.0,30.18,NW,323,6.0,9.0,42,0.00,,,0.00,,2013-02-14 06:01:00,
2013-02-13 22:11:00,47.0,25.0,30.18,NW,321,6.0,8.0,42,0.00,,,0.00,,2013-02-14 06:11:00,
2013-02-13 22:21:00,47.0,25.0,30.18,NW,321,6.0,8.0,42,0.00,,,0.00,,2013-02-14 06:21:00,
2013-02-13 22:31:00,46.0,25.0,30.18,NNW,333,3.0,8.0,43,0.00,,,0.00,,2013-02-14 06:31:00,
2013-02-13 22:41:00,46.0,25.0,30.18,NNW,333,3.0,8.0,43,0.00,,,0.00,,2013-02-14 06:41:00,
2013-02-13 22:51:00,47.0,26.0,30.18,North,354,5.0,7.0,43,0.00,,,0.00,,2013-02-14 06:51:00,
2013-02-13 23:01:00,47.0,25.0,30.20,NNW,331,3.0,6.0,42,0.00,,,0.00,,2013-02-14 07:01:00,
2013-02-13 23:11:00,45.0,24.0,30.20,NW,319,4.0,6.0,44,0.00,,,0.00,,2013-02-14 07:11:00,
2013-02-13 23:21:00,45.0,24.0,30.20,NW,319,4.0,6.0,44,0.00,,,0.00,,2013-02-14 07:21:00,
2013-02-13 23:31:00,45.0,22.0,30.20,NW,308,5.0,7.0,39,0.00,,,0.00,,2013-02-14 07:31:00,
2013-02-13 23:41:00,45.0,22.0,30.20,NW,308,5.0,7.0,39,0.00,,,0.00,,2013-02-14 07:41:00,
2013-02-13 23:52:00,45.0,20.0,30.20,WNW,296,3.0,6.0,37,0.00,,,0.00,,2013-02-14 07:52:00,